sensor_id;sensor_type;location;lat;lon;timestamp;temperature;humidity
12470;DHT22;36499;46.484;13.832;2023-04-16T00:00:24;1.10;99.90
12470;DHT22;36499;46.484;13.832;2023-04-16T00:02:51;1.10;99.90
12470;DHT22;36499;46.484;13.832;2023-04-16T00:05:18;1.10;99.90
12470;DHT22;36499;46.484;13.832;2023-04-16T00:07:45;1.00;99.90
12470;DHT22;36499;46.484;13.832;2023-04-16T00:10:13;1.00;99.90
12470;DHT22;36499;46.484;13.832;2023-04-16T00:12:40;0.80;99.90
12470;DHT22;36499;46.484;13.832;2023-04-16T00:15:08;0.70;99.90
12470;DHT22;36499;46.484;13.832;2023-04-16T00:17:36;0.70;99.90
12470;DHT22;36499;46.484;13.832;2023-04-16T00:20:05;0.60;99.90
12470;DHT22;36499;46.484;13.832;2023-04-16T00:22:33;0.50;99.90
12470;DHT22;36499;46.484;13.832;2023-04-16T00:25:00;0.50;99.90
12470;DHT22;36499;46.484;13.832;2023-04-16T00:27:27;0.50;99.90
12470;DHT22;36499;46.484;13.832;2023-04-16T00:29:54;0.50;99.90
12470;DHT22;36499;46.484;13.832;2023-04-16T00:32:21;0.50;99.90
12470;DHT22;36499;46.484;13.832;2023-04-16T00:34:50;0.50;99.90
12470;DHT22;36499;46.484;13.832;2023-04-16T00:37:17;0.50;99.90
12470;DHT22;36499;46.484;13.832;2023-04-16T00:39:44;0.50;99.90
12470;DHT22;36499;46.484;13.832;2023-04-16T00:42:11;0.50;99.90
12470;DHT22;36499;46.484;13.832;2023-04-16T00:44:38;0.50;99.90
12470;DHT22;36499;46.484;13.832;2023-04-16T00:47:05;0.50;99.90
12470;DHT22;36499;46.484;13.832;2023-04-16T00:49:33;0.50;99.90
12470;DHT22;36499;46.484;13.832;2023-04-16T00:52:03;0.50;99.90
12470;DHT22;36499;46.484;13.832;2023-04-16T00:54:31;0.50;99.90
12470;DHT22;36499;46.484;13.832;2023-04-16T00:56:58;0.50;99.90
12470;DHT22;36499;46.484;13.832;2023-04-16T00:59:26;0.50;99.90
12470;DHT22;36499;46.484;13.832;2023-04-16T01:01:53;0.60;99.90
12470;DHT22;36499;46.484;13.832;2023-04-16T01:04:20;0.60;99.90
12470;DHT22;36499;46.484;13.832;2023-04-16T01:06:47;0.50;99.90
12470;DHT22;36499;46.484;13.832;2023-04-16T01:09:16;0.50;99.90
12470;DHT22;36499;46.484;13.832;2023-04-16T01:11:43;0.40;99.90
12470;DHT22;36499;46.484;13.832;2023-04-16T01:14:11;0.40;99.90
12470;DHT22;36499;46.484;13.832;2023-04-16T01:16:38;0.50;99.90
12470;DHT22;36499;46.484;13.832;2023-04-16T01:19:05;0.50;99.90
12470;DHT22;36499;46.484;13.832;2023-04-16T01:21:33;0.50;99.90
12470;DHT22;36499;46.484;13.832;2023-04-16T01:24:01;0.40;99.90
12470;DHT22;36499;46.484;13.832;2023-04-16T01:26:29;0.40;99.90
12470;DHT22;36499;46.484;13.832;2023-04-16T01:28:56;0.40;99.90
12470;DHT22;36499;46.484;13.832;2023-04-16T01:31:23;0.40;99.90
12470;DHT22;36499;46.484;13.832;2023-04-16T01:33:51;0.40;99.90
12470;DHT22;36499;46.484;13.832;2023-04-16T01:36:18;0.40;99.90
12470;DHT22;36499;46.484;13.832;2023-04-16T01:38:46;0.40;99.90
12470;DHT22;36499;46.484;13.832;2023-04-16T01:41:13;0.40;99.90
12470;DHT22;36499;46.484;13.832;2023-04-16T01:43:41;0.40;99.90
12470;DHT22;36499;46.484;13.832;2023-04-16T01:46:13;0.40;99.90
12470;DHT22;36499;46.484;13.832;2023-04-16T01:48:43;0.40;99.90
12470;DHT22;36499;46.484;13.832;2023-04-16T01:51:11;0.40;99.90
12470;DHT22;36499;46.484;13.832;2023-04-16T01:53:38;0.50;99.90
12470;DHT22;36499;46.484;13.832;2023-04-16T01:56:07;0.50;99.90
12470;DHT22;36499;46.484;13.832;2023-04-16T01:58:34;0.50;99.90
12470;DHT22;36499;46.484;13.832;2023-04-16T02:01:02;0.40;99.90
12470;DHT22;36499;46.484;13.832;2023-04-16T02:03:30;0.30;99.90
12470;DHT22;36499;46.484;13.832;2023-04-16T02:05:57;0.20;99.90
12470;DHT22;36499;46.484;13.832;2023-04-16T02:08:25;0.20;99.90
12470;DHT22;36499;46.484;13.832;2023-04-16T02:10:53;0.10;99.90
12470;DHT22;36499;46.484;13.832;2023-04-16T02:13:21;0.10;99.90
12470;DHT22;36499;46.484;13.832;2023-04-16T02:15:51;0.20;99.90
12470;DHT22;36499;46.484;13.832;2023-04-16T02:18:18;0.10;99.90
12470;DHT22;36499;46.484;13.832;2023-04-16T02:20:46;0.10;99.90
12470;DHT22;36499;46.484;13.832;2023-04-16T02:23:14;0.10;99.90
12470;DHT22;36499;46.484;13.832;2023-04-16T02:25:43;0.10;99.90
12470;DHT22;36499;46.484;13.832;2023-04-16T02:28:13;0.00;99.90
12470;DHT22;36499;46.484;13.832;2023-04-16T02:30:43;0.00;99.90
12470;DHT22;36499;46.484;13.832;2023-04-16T02:33:11;0.00;99.90
12470;DHT22;36499;46.484;13.832;2023-04-16T02:35:39;-0.10;99.90
12470;DHT22;36499;46.484;13.832;2023-04-16T02:38:06;-0.10;99.90
12470;DHT22;36499;46.484;13.832;2023-04-16T02:40:34;-0.10;99.90
12470;DHT22;36499;46.484;13.832;2023-04-16T02:43:01;-0.10;99.90
12470;DHT22;36499;46.484;13.832;2023-04-16T02:45:28;-0.10;99.90
12470;DHT22;36499;46.484;13.832;2023-04-16T02:47:58;0.00;99.90
12470;DHT22;36499;46.484;13.832;2023-04-16T02:50:26;0.00;99.90
12470;DHT22;36499;46.484;13.832;2023-04-16T02:52:53;0.00;99.90
12470;DHT22;36499;46.484;13.832;2023-04-16T02:55:20;0.00;99.90
12470;DHT22;36499;46.484;13.832;2023-04-16T02:57:47;0.00;99.90
12470;DHT22;36499;46.484;13.832;2023-04-16T03:00:14;0.00;99.90
12470;DHT22;36499;46.484;13.832;2023-04-16T03:02:41;0.00;99.90
12470;DHT22;36499;46.484;13.832;2023-04-16T03:05:10;0.10;99.90
12470;DHT22;36499;46.484;13.832;2023-04-16T03:07:37;0.00;99.90
12470;DHT22;36499;46.484;13.832;2023-04-16T03:10:06;0.10;99.90
12470;DHT22;36499;46.484;13.832;2023-04-16T03:12:34;0.00;99.90
12470;DHT22;36499;46.484;13.832;2023-04-16T03:15:02;0.00;99.90
12470;DHT22;36499;46.484;13.832;2023-04-16T03:17:29;0.00;99.90
12470;DHT22;36499;46.484;13.832;2023-04-16T03:19:56;0.00;99.90
12470;DHT22;36499;46.484;13.832;2023-04-16T03:22:24;-0.10;99.90
12470;DHT22;36499;46.484;13.832;2023-04-16T03:24:51;-0.20;99.90
12470;DHT22;36499;46.484;13.832;2023-04-16T03:27:20;-0.10;99.90
12470;DHT22;36499;46.484;13.832;2023-04-16T03:29:47;-0.20;99.90
12470;DHT22;36499;46.484;13.832;2023-04-16T03:32:14;-0.10;99.90
12470;DHT22;36499;46.484;13.832;2023-04-16T03:34:42;-0.10;99.90
12470;DHT22;36499;46.484;13.832;2023-04-16T03:37:10;-0.20;99.90
12470;DHT22;36499;46.484;13.832;2023-04-16T03:39:38;-0.20;99.90
12470;DHT22;36499;46.484;13.832;2023-04-16T03:42:06;-0.20;99.90
12470;DHT22;36499;46.484;13.832;2023-04-16T03:44:33;-0.20;99.90
12470;DHT22;36499;46.484;13.832;2023-04-16T03:47:00;-0.20;99.90
12470;DHT22;36499;46.484;13.832;2023-04-16T03:49:27;-0.30;99.90
12470;DHT22;36499;46.484;13.832;2023-04-16T03:51:54;-0.30;99.90
12470;DHT22;36499;46.484;13.832;2023-04-16T03:54:21;-0.30;99.90
12470;DHT22;36499;46.484;13.832;2023-04-16T03:56:49;-0.30;99.90
12470;DHT22;36499;46.484;13.832;2023-04-16T03:59:17;-0.20;99.90
12470;DHT22;36499;46.484;13.832;2023-04-16T04:01:44;-0.30;99.90
12470;DHT22;36499;46.484;13.832;2023-04-16T04:04:11;-0.20;99.90
12470;DHT22;36499;46.484;13.832;2023-04-16T04:06:38;-0.20;99.90
12470;DHT22;36499;46.484;13.832;2023-04-16T04:09:05;-0.20;99.90
12470;DHT22;36499;46.484;13.832;2023-04-16T04:11:32;-0.10;99.90
12470;DHT22;36499;46.484;13.832;2023-04-16T04:14:01;-0.10;99.90
12470;DHT22;36499;46.484;13.832;2023-04-16T04:16:29;-0.10;99.90
12470;DHT22;36499;46.484;13.832;2023-04-16T04:18:56;-0.10;99.90
12470;DHT22;36499;46.484;13.832;2023-04-16T04:21:25;-0.10;99.90
12470;DHT22;36499;46.484;13.832;2023-04-16T04:23:53;-0.10;99.90
12470;DHT22;36499;46.484;13.832;2023-04-16T04:26:20;-0.10;99.90
12470;DHT22;36499;46.484;13.832;2023-04-16T04:28:47;-0.10;99.90
12470;DHT22;36499;46.484;13.832;2023-04-16T04:31:15;-0.10;99.90
12470;DHT22;36499;46.484;13.832;2023-04-16T04:33:43;-0.10;99.90
12470;DHT22;36499;46.484;13.832;2023-04-16T04:36:10;-0.20;99.90
12470;DHT22;36499;46.484;13.832;2023-04-16T04:38:37;-0.20;99.90
12470;DHT22;36499;46.484;13.832;2023-04-16T04:41:04;-0.20;99.90
12470;DHT22;36499;46.484;13.832;2023-04-16T04:43:31;-0.10;99.90
12470;DHT22;36499;46.484;13.832;2023-04-16T04:45:58;-0.10;99.90
12470;DHT22;36499;46.484;13.832;2023-04-16T04:48:26;-0.20;99.90
12470;DHT22;36499;46.484;13.832;2023-04-16T04:50:53;-0.20;99.90
12470;DHT22;36499;46.484;13.832;2023-04-16T04:53:20;-0.20;99.90
12470;DHT22;36499;46.484;13.832;2023-04-16T04:55:47;-0.10;99.90
12470;DHT22;36499;46.484;13.832;2023-04-16T04:58:14;-0.10;99.90
12470;DHT22;36499;46.484;13.832;2023-04-16T05:00:41;-0.10;99.90
12470;DHT22;36499;46.484;13.832;2023-04-16T05:03:09;-0.10;99.90
12470;DHT22;36499;46.484;13.832;2023-04-16T05:05:39;0.00;99.90
12470;DHT22;36499;46.484;13.832;2023-04-16T05:08:06;0.00;99.90
12470;DHT22;36499;46.484;13.832;2023-04-16T05:10:33;0.00;99.90
12470;DHT22;36499;46.484;13.832;2023-04-16T05:13:01;0.00;99.90
12470;DHT22;36499;46.484;13.832;2023-04-16T05:15:28;0.10;99.90
12470;DHT22;36499;46.484;13.832;2023-04-16T05:17:55;0.10;99.90
12470;DHT22;36499;46.484;13.832;2023-04-16T05:20:22;0.20;99.90
12470;DHT22;36499;46.484;13.832;2023-04-16T05:22:51;0.20;99.90
12470;DHT22;36499;46.484;13.832;2023-04-16T05:25:20;0.30;99.90
12470;DHT22;36499;46.484;13.832;2023-04-16T05:27:47;0.30;99.90
12470;DHT22;36499;46.484;13.832;2023-04-16T05:30:14;0.40;99.90
12470;DHT22;36499;46.484;13.832;2023-04-16T05:32:41;0.50;99.90
12470;DHT22;36499;46.484;13.832;2023-04-16T05:35:08;0.50;99.90
12470;DHT22;36499;46.484;13.832;2023-04-16T05:37:35;0.50;99.90
12470;DHT22;36499;46.484;13.832;2023-04-16T05:40:05;0.60;99.90
12470;DHT22;36499;46.484;13.832;2023-04-16T05:42:33;0.60;99.90
12470;DHT22;36499;46.484;13.832;2023-04-16T05:45:01;0.70;99.90
12470;DHT22;36499;46.484;13.832;2023-04-16T05:47:29;0.80;99.90
12470;DHT22;36499;46.484;13.832;2023-04-16T05:49:56;0.90;99.90
12470;DHT22;36499;46.484;13.832;2023-04-16T05:52:23;1.00;99.90
12470;DHT22;36499;46.484;13.832;2023-04-16T05:54:50;1.00;99.90
12470;DHT22;36499;46.484;13.832;2023-04-16T05:57:19;1.10;99.90
12470;DHT22;36499;46.484;13.832;2023-04-16T05:59:46;1.30;99.90
12470;DHT22;36499;46.484;13.832;2023-04-16T06:02:13;1.40;99.90
12470;DHT22;36499;46.484;13.832;2023-04-16T06:04:40;1.60;99.90
12470;DHT22;36499;46.484;13.832;2023-04-16T06:07:07;1.70;99.90
12470;DHT22;36499;46.484;13.832;2023-04-16T06:09:34;1.80;99.90
12470;DHT22;36499;46.484;13.832;2023-04-16T06:12:01;1.90;99.90
12470;DHT22;36499;46.484;13.832;2023-04-16T06:14:30;2.00;99.90
12470;DHT22;36499;46.484;13.832;2023-04-16T06:16:57;2.20;99.90
12470;DHT22;36499;46.484;13.832;2023-04-16T06:19:24;2.20;99.90
12470;DHT22;36499;46.484;13.832;2023-04-16T06:21:52;2.30;99.90
12470;DHT22;36499;46.484;13.832;2023-04-16T06:24:19;2.50;99.90
12470;DHT22;36499;46.484;13.832;2023-04-16T06:26:46;2.60;99.90
12470;DHT22;36499;46.484;13.832;2023-04-16T06:29:13;2.70;99.90
12470;DHT22;36499;46.484;13.832;2023-04-16T06:31:42;2.80;99.90
12470;DHT22;36499;46.484;13.832;2023-04-16T06:34:09;2.90;99.90
12470;DHT22;36499;46.484;13.832;2023-04-16T06:36:36;3.00;99.90
12470;DHT22;36499;46.484;13.832;2023-04-16T06:39:03;3.20;99.90
12470;DHT22;36499;46.484;13.832;2023-04-16T06:41:30;3.40;99.90
12470;DHT22;36499;46.484;13.832;2023-04-16T06:43:57;3.50;99.90
12470;DHT22;36499;46.484;13.832;2023-04-16T06:46:24;3.60;99.90
12470;DHT22;36499;46.484;13.832;2023-04-16T06:48:53;3.60;99.90
12470;DHT22;36499;46.484;13.832;2023-04-16T06:51:20;3.70;99.90
12470;DHT22;36499;46.484;13.832;2023-04-16T06:53:47;3.80;99.90
12470;DHT22;36499;46.484;13.832;2023-04-16T06:56:15;3.80;99.90
12470;DHT22;36499;46.484;13.832;2023-04-16T06:58:42;3.90;99.90
12470;DHT22;36499;46.484;13.832;2023-04-16T07:01:09;4.00;99.90
12470;DHT22;36499;46.484;13.832;2023-04-16T07:03:36;4.00;99.90
12470;DHT22;36499;46.484;13.832;2023-04-16T07:06:04;4.10;99.90
12470;DHT22;36499;46.484;13.832;2023-04-16T07:08:31;4.20;99.90
12470;DHT22;36499;46.484;13.832;2023-04-16T07:10:58;4.30;99.90
12470;DHT22;36499;46.484;13.832;2023-04-16T07:13:26;4.40;99.90
12470;DHT22;36499;46.484;13.832;2023-04-16T07:15:53;4.40;99.90
12470;DHT22;36499;46.484;13.832;2023-04-16T07:18:20;4.50;99.90
12470;DHT22;36499;46.484;13.832;2023-04-16T07:20:47;4.50;99.90
12470;DHT22;36499;46.484;13.832;2023-04-16T07:23:15;4.60;99.90
12470;DHT22;36499;46.484;13.832;2023-04-16T07:25:43;4.70;99.90
12470;DHT22;36499;46.484;13.832;2023-04-16T07:28:10;4.80;99.90
12470;DHT22;36499;46.484;13.832;2023-04-16T07:30:37;4.80;99.90
12470;DHT22;36499;46.484;13.832;2023-04-16T07:33:04;4.90;99.90
12470;DHT22;36499;46.484;13.832;2023-04-16T07:35:31;5.00;99.90
12470;DHT22;36499;46.484;13.832;2023-04-16T07:37:58;5.10;99.90
12470;DHT22;36499;46.484;13.832;2023-04-16T07:40:27;5.10;99.90
12470;DHT22;36499;46.484;13.832;2023-04-16T07:42:54;5.20;99.90
12470;DHT22;36499;46.484;13.832;2023-04-16T07:45:22;5.30;99.90
12470;DHT22;36499;46.484;13.832;2023-04-16T07:47:49;5.40;99.90
12470;DHT22;36499;46.484;13.832;2023-04-16T07:50:17;5.50;99.90
12470;DHT22;36499;46.484;13.832;2023-04-16T07:52:45;5.70;99.90
12470;DHT22;36499;46.484;13.832;2023-04-16T07:55:12;5.80;99.90
12470;DHT22;36499;46.484;13.832;2023-04-16T07:57:41;6.00;99.90
12470;DHT22;36499;46.484;13.832;2023-04-16T08:00:09;6.30;99.90
12470;DHT22;36499;46.484;13.832;2023-04-16T08:02:37;6.70;99.90
12470;DHT22;36499;46.484;13.832;2023-04-16T08:05:04;7.10;99.90
12470;DHT22;36499;46.484;13.832;2023-04-16T08:07:32;7.30;99.90
12470;DHT22;36499;46.484;13.832;2023-04-16T08:09:59;7.60;99.90
12470;DHT22;36499;46.484;13.832;2023-04-16T08:12:26;7.90;99.90
12470;DHT22;36499;46.484;13.832;2023-04-16T08:14:56;8.00;99.90
12470;DHT22;36499;46.484;13.832;2023-04-16T08:17:23;8.20;99.90
12470;DHT22;36499;46.484;13.832;2023-04-16T08:19:50;8.30;99.90
12470;DHT22;36499;46.484;13.832;2023-04-16T08:22:18;8.40;99.90
12470;DHT22;36499;46.484;13.832;2023-04-16T08:24:45;8.30;99.90
12470;DHT22;36499;46.484;13.832;2023-04-16T08:27:12;8.30;99.90
12470;DHT22;36499;46.484;13.832;2023-04-16T08:29:39;8.30;99.90
12470;DHT22;36499;46.484;13.832;2023-04-16T08:32:07;8.30;99.90
12470;DHT22;36499;46.484;13.832;2023-04-16T08:34:35;8.40;99.90
12470;DHT22;36499;46.484;13.832;2023-04-16T08:37:02;8.50;99.90
12470;DHT22;36499;46.484;13.832;2023-04-16T08:39:29;8.50;99.90
12470;DHT22;36499;46.484;13.832;2023-04-16T08:41:57;8.60;99.90
12470;DHT22;36499;46.484;13.832;2023-04-16T08:44:27;8.80;99.90
12470;DHT22;36499;46.484;13.832;2023-04-16T08:46:58;8.90;99.90
12470;DHT22;36499;46.484;13.832;2023-04-16T08:49:27;9.00;99.90
12470;DHT22;36499;46.484;13.832;2023-04-16T08:51:55;9.00;99.90
12470;DHT22;36499;46.484;13.832;2023-04-16T08:54:32;9.30;99.90
12470;DHT22;36499;46.484;13.832;2023-04-16T08:57:05;9.50;99.90
12470;DHT22;36499;46.484;13.832;2023-04-16T08:59:37;9.60;99.90
12470;DHT22;36499;46.484;13.832;2023-04-16T09:02:05;9.70;99.90
12470;DHT22;36499;46.484;13.832;2023-04-16T09:04:35;9.80;99.90
12470;DHT22;36499;46.484;13.832;2023-04-16T09:07:06;10.00;99.90
12470;DHT22;36499;46.484;13.832;2023-04-16T09:09:34;10.00;99.90
12470;DHT22;36499;46.484;13.832;2023-04-16T09:12:04;10.10;99.90
12470;DHT22;36499;46.484;13.832;2023-04-16T09:14:31;10.20;99.90
12470;DHT22;36499;46.484;13.832;2023-04-16T09:16:59;10.30;99.90
12470;DHT22;36499;46.484;13.832;2023-04-16T09:19:27;10.40;99.90
12470;DHT22;36499;46.484;13.832;2023-04-16T09:21:55;10.50;99.90
12470;DHT22;36499;46.484;13.832;2023-04-16T09:24:23;10.50;97.70
12470;DHT22;36499;46.484;13.832;2023-04-16T09:26:51;10.40;99.00
12470;DHT22;36499;46.484;13.832;2023-04-16T09:29:33;10.40;99.00
12470;DHT22;36499;46.484;13.832;2023-04-16T09:32:02;10.30;97.70
12470;DHT22;36499;46.484;13.832;2023-04-16T09:34:31;10.20;96.60
12470;DHT22;36499;46.484;13.832;2023-04-16T09:37:15;10.10;95.70
12470;DHT22;36499;46.484;13.832;2023-04-16T09:39:43;10.20;98.50
12470;DHT22;36499;46.484;13.832;2023-04-16T09:42:12;10.40;97.80
12470;DHT22;36499;46.484;13.832;2023-04-16T09:44:40;10.50;98.90
12470;DHT22;36499;46.484;13.832;2023-04-16T09:47:08;10.60;97.30
12470;DHT22;36499;46.484;13.832;2023-04-16T09:49:40;10.70;95.70
12470;DHT22;36499;46.484;13.832;2023-04-16T09:52:11;11.00;96.10
12470;DHT22;36499;46.484;13.832;2023-04-16T09:54:46;11.20;94.80
12470;DHT22;36499;46.484;13.832;2023-04-16T09:57:17;11.60;95.10
12470;DHT22;36499;46.484;13.832;2023-04-16T09:59:45;11.70;90.50
12470;DHT22;36499;46.484;13.832;2023-04-16T10:02:12;11.70;93.30
12470;DHT22;36499;46.484;13.832;2023-04-16T10:04:47;11.90;93.20
12470;DHT22;36499;46.484;13.832;2023-04-16T10:07:16;11.70;93.10
12470;DHT22;36499;46.484;13.832;2023-04-16T10:09:45;11.60;92.20
12470;DHT22;36499;46.484;13.832;2023-04-16T10:12:14;11.50;89.70
12470;DHT22;36499;46.484;13.832;2023-04-16T10:14:42;11.40;91.80
12470;DHT22;36499;46.484;13.832;2023-04-16T10:17:09;11.40;90.80
12470;DHT22;36499;46.484;13.832;2023-04-16T10:19:36;11.40;91.90
12470;DHT22;36499;46.484;13.832;2023-04-16T10:22:04;11.40;92.60
12470;DHT22;36499;46.484;13.832;2023-04-16T10:24:32;11.40;93.10
12470;DHT22;36499;46.484;13.832;2023-04-16T10:27:01;11.40;94.70
12470;DHT22;36499;46.484;13.832;2023-04-16T10:29:30;11.20;93.30
12470;DHT22;36499;46.484;13.832;2023-04-16T10:31:58;11.10;92.30
12470;DHT22;36499;46.484;13.832;2023-04-16T10:34:26;11.00;93.50
12470;DHT22;36499;46.484;13.832;2023-04-16T10:36:55;10.90;92.50
12470;DHT22;36499;46.484;13.832;2023-04-16T10:39:24;11.00;93.70
12470;DHT22;36499;46.484;13.832;2023-04-16T10:42:08;11.20;92.50
12470;DHT22;36499;46.484;13.832;2023-04-16T10:44:36;11.20;92.30
12470;DHT22;36499;46.484;13.832;2023-04-16T10:47:09;11.40;91.80
12470;DHT22;36499;46.484;13.832;2023-04-16T10:49:37;11.50;91.60
12470;DHT22;36499;46.484;13.832;2023-04-16T10:52:09;11.70;91.60
12470;DHT22;36499;46.484;13.832;2023-04-16T10:54:38;12.10;93.00
12470;DHT22;36499;46.484;13.832;2023-04-16T10:57:09;12.20;92.00
12470;DHT22;36499;46.484;13.832;2023-04-16T10:59:42;12.30;91.30
12470;DHT22;36499;46.484;13.832;2023-04-16T11:02:12;12.20;90.70
12470;DHT22;36499;46.484;13.832;2023-04-16T11:04:42;12.10;91.00
12470;DHT22;36499;46.484;13.832;2023-04-16T11:07:18;12.10;91.00
12470;DHT22;36499;46.484;13.832;2023-04-16T11:09:51;11.90;90.50
12470;DHT22;36499;46.484;13.832;2023-04-16T11:12:26;11.70;91.10
12470;DHT22;36499;46.484;13.832;2023-04-16T11:15:01;11.60;89.10
12470;DHT22;36499;46.484;13.832;2023-04-16T11:17:31;11.40;91.20
12470;DHT22;36499;46.484;13.832;2023-04-16T11:20:03;11.40;91.30
12470;DHT22;36499;46.484;13.832;2023-04-16T11:22:33;11.40;91.40
12470;DHT22;36499;46.484;13.832;2023-04-16T11:25:02;11.40;92.00
12470;DHT22;36499;46.484;13.832;2023-04-16T11:27:31;11.60;92.10
12470;DHT22;36499;46.484;13.832;2023-04-16T11:29:59;11.50;87.50
12470;DHT22;36499;46.484;13.832;2023-04-16T11:32:30;11.30;87.60
12470;DHT22;36499;46.484;13.832;2023-04-16T11:34:58;11.20;87.90
12470;DHT22;36499;46.484;13.832;2023-04-16T11:37:32;11.10;90.20
12470;DHT22;36499;46.484;13.832;2023-04-16T11:40:00;11.20;92.50
12470;DHT22;36499;46.484;13.832;2023-04-16T11:42:30;11.20;92.60
12470;DHT22;36499;46.484;13.832;2023-04-16T11:44:59;11.30;91.50
12470;DHT22;36499;46.484;13.832;2023-04-16T11:47:26;11.40;92.20
12470;DHT22;36499;46.484;13.832;2023-04-16T11:49:55;11.50;90.20
12470;DHT22;36499;46.484;13.832;2023-04-16T11:52:26;11.60;91.80
12470;DHT22;36499;46.484;13.832;2023-04-16T11:54:54;11.70;91.90
12470;DHT22;36499;46.484;13.832;2023-04-16T11:57:25;11.80;91.10
12470;DHT22;36499;46.484;13.832;2023-04-16T11:59:55;11.90;90.50
12470;DHT22;36499;46.484;13.832;2023-04-16T12:02:36;11.90;91.50
12470;DHT22;36499;46.484;13.832;2023-04-16T12:05:06;11.70;90.00
12470;DHT22;36499;46.484;13.832;2023-04-16T12:07:51;11.60;90.10
12470;DHT22;36499;46.484;13.832;2023-04-16T12:10:18;11.50;91.00
12470;DHT22;36499;46.484;13.832;2023-04-16T12:12:45;11.40;92.10
12470;DHT22;36499;46.484;13.832;2023-04-16T12:15:14;11.30;91.70
12470;DHT22;36499;46.484;13.832;2023-04-16T12:17:42;11.20;90.90
12470;DHT22;36499;46.484;13.832;2023-04-16T12:20:10;11.30;89.50
12470;DHT22;36499;46.484;13.832;2023-04-16T12:22:39;11.20;91.30
12470;DHT22;36499;46.484;13.832;2023-04-16T12:25:11;11.30;91.10
12470;DHT22;36499;46.484;13.832;2023-04-16T12:27:43;11.30;90.40
12470;DHT22;36499;46.484;13.832;2023-04-16T12:30:14;11.40;91.30
12470;DHT22;36499;46.484;13.832;2023-04-16T12:32:42;11.50;91.10
12470;DHT22;36499;46.484;13.832;2023-04-16T12:35:11;11.50;90.10
12470;DHT22;36499;46.484;13.832;2023-04-16T12:37:39;11.50;91.10
12470;DHT22;36499;46.484;13.832;2023-04-16T12:40:06;11.50;90.70
12470;DHT22;36499;46.484;13.832;2023-04-16T12:42:34;11.50;88.60
12470;DHT22;36499;46.484;13.832;2023-04-16T12:45:02;11.40;85.90
12470;DHT22;36499;46.484;13.832;2023-04-16T12:47:31;11.40;90.20
12470;DHT22;36499;46.484;13.832;2023-04-16T12:49:58;11.60;90.20
12470;DHT22;36499;46.484;13.832;2023-04-16T12:52:25;11.70;90.40
12470;DHT22;36499;46.484;13.832;2023-04-16T12:54:52;11.80;90.40
12470;DHT22;36499;46.484;13.832;2023-04-16T12:57:19;11.90;90.50
12470;DHT22;36499;46.484;13.832;2023-04-16T12:59:53;11.90;90.00
12470;DHT22;36499;46.484;13.832;2023-04-16T13:02:20;11.90;87.70
12470;DHT22;36499;46.484;13.832;2023-04-16T13:04:49;11.70;87.20
12470;DHT22;36499;46.484;13.832;2023-04-16T13:07:16;11.60;84.60
12470;DHT22;36499;46.484;13.832;2023-04-16T13:09:44;11.60;85.60
12470;DHT22;36499;46.484;13.832;2023-04-16T13:12:11;11.60;85.60
12470;DHT22;36499;46.484;13.832;2023-04-16T13:14:38;11.60;83.70
12470;DHT22;36499;46.484;13.832;2023-04-16T13:17:05;11.40;84.30
12470;DHT22;36499;46.484;13.832;2023-04-16T13:19:32;11.40;86.80
12470;DHT22;36499;46.484;13.832;2023-04-16T13:22:01;11.50;85.80
12470;DHT22;36499;46.484;13.832;2023-04-16T13:24:29;11.60;88.60
12470;DHT22;36499;46.484;13.832;2023-04-16T13:26:56;11.70;86.10
12470;DHT22;36499;46.484;13.832;2023-04-16T13:29:23;11.80;89.00
12470;DHT22;36499;46.484;13.832;2023-04-16T13:31:51;11.90;86.40
12470;DHT22;36499;46.484;13.832;2023-04-16T13:34:18;11.90;80.60
12470;DHT22;36499;46.484;13.832;2023-04-16T13:36:45;11.80;82.10
12470;DHT22;36499;46.484;13.832;2023-04-16T13:39:14;11.80;85.20
12470;DHT22;36499;46.484;13.832;2023-04-16T13:41:42;11.80;85.80
12470;DHT22;36499;46.484;13.832;2023-04-16T13:44:09;11.80;83.40
12470;DHT22;36499;46.484;13.832;2023-04-16T13:46:36;11.70;85.70
12470;DHT22;36499;46.484;13.832;2023-04-16T13:49:03;11.60;85.60
12470;DHT22;36499;46.484;13.832;2023-04-16T13:51:30;11.50;86.30
12470;DHT22;36499;46.484;13.832;2023-04-16T13:53:57;11.30;84.80
12470;DHT22;36499;46.484;13.832;2023-04-16T13:56:26;11.10;88.60
12470;DHT22;36499;46.484;13.832;2023-04-16T13:58:53;11.00;87.50
12470;DHT22;36499;46.484;13.832;2023-04-16T14:01:20;11.10;90.60
12470;DHT22;36499;46.484;13.832;2023-04-16T14:03:48;11.30;91.10
12470;DHT22;36499;46.484;13.832;2023-04-16T14:06:15;11.40;89.20
12470;DHT22;36499;46.484;13.832;2023-04-16T14:08:42;11.50;86.40
12470;DHT22;36499;46.484;13.832;2023-04-16T14:11:10;11.50;86.80
12470;DHT22;36499;46.484;13.832;2023-04-16T14:13:38;11.50;83.80
12470;DHT22;36499;46.484;13.832;2023-04-16T14:16:06;11.50;85.20
12470;DHT22;36499;46.484;13.832;2023-04-16T14:18:33;11.50;86.50
12470;DHT22;36499;46.484;13.832;2023-04-16T14:21:00;11.50;84.90
12470;DHT22;36499;46.484;13.832;2023-04-16T14:23:27;11.50;85.90
12470;DHT22;36499;46.484;13.832;2023-04-16T14:25:54;11.60;86.50
12470;DHT22;36499;46.484;13.832;2023-04-16T14:28:21;11.70;82.60
12470;DHT22;36499;46.484;13.832;2023-04-16T14:30:50;11.80;81.00
12470;DHT22;36499;46.484;13.832;2023-04-16T14:33:17;11.90;82.00
12470;DHT22;36499;46.484;13.832;2023-04-16T14:35:44;11.80;80.30
12470;DHT22;36499;46.484;13.832;2023-04-16T14:38:11;11.80;83.70
12470;DHT22;36499;46.484;13.832;2023-04-16T14:40:38;11.70;80.30
12470;DHT22;36499;46.484;13.832;2023-04-16T14:43:05;11.60;79.80
12470;DHT22;36499;46.484;13.832;2023-04-16T14:45:32;11.50;77.10
12470;DHT22;36499;46.484;13.832;2023-04-16T14:48:00;11.50;76.10
12470;DHT22;36499;46.484;13.832;2023-04-16T14:50:28;11.50;77.70
12470;DHT22;36499;46.484;13.832;2023-04-16T14:52:55;11.50;76.80
12470;DHT22;36499;46.484;13.832;2023-04-16T14:55:22;11.40;79.40
12470;DHT22;36499;46.484;13.832;2023-04-16T14:57:49;11.30;78.80
12470;DHT22;36499;46.484;13.832;2023-04-16T15:00:17;11.20;76.70
12470;DHT22;36499;46.484;13.832;2023-04-16T15:02:44;11.10;77.30
12470;DHT22;36499;46.484;13.832;2023-04-16T15:05:13;11.10;79.00
12470;DHT22;36499;46.484;13.832;2023-04-16T15:07:41;11.10;80.00
12470;DHT22;36499;46.484;13.832;2023-04-16T15:10:08;11.10;82.90
12470;DHT22;36499;46.484;13.832;2023-04-16T15:12:37;11.10;85.90
12470;DHT22;36499;46.484;13.832;2023-04-16T15:15:05;11.10;84.40
12470;DHT22;36499;46.484;13.832;2023-04-16T15:17:33;10.80;90.00
12470;DHT22;36499;46.484;13.832;2023-04-16T15:20:00;10.40;92.90
12470;DHT22;36499;46.484;13.832;2023-04-16T15:22:32;10.10;95.00
12470;DHT22;36499;46.484;13.832;2023-04-16T15:24:59;9.70;97.70
12470;DHT22;36499;46.484;13.832;2023-04-16T15:27:26;9.50;99.90